createdAt,value
2023-03-04T00:02:02.737Z,102359.59
2023-03-04T00:04:34.895Z,102362.38
2023-03-04T00:07:06.995Z,102358.97
2023-03-04T00:09:39.039Z,102359.19
2023-03-04T00:12:11.166Z,102361.94
2023-03-04T00:14:43.217Z,102347.91
2023-03-04T00:17:15.343Z,102350.56
2023-03-04T00:19:47.527Z,102349.69
2023-03-04T00:22:19.632Z,102354.97
2023-03-04T00:24:51.709Z,102346.25
2023-03-04T00:27:23.765Z,102338.63
2023-03-04T00:29:56.694Z,102340.28
2023-03-04T00:32:28.700Z,102336.09
2023-03-04T00:35:00.871Z,102342.22
2023-03-04T00:37:33.079Z,102343.94
2023-03-04T00:40:06.140Z,102333.50
2023-03-04T00:42:38.188Z,102332.84
2023-03-04T00:45:10.909Z,102332.03
2023-03-04T00:47:42.923Z,102330.16
2023-03-04T00:50:15.013Z,102327.59
2023-03-04T00:52:47.015Z,102331.00
2023-03-04T00:55:19.232Z,102331.09
2023-03-04T00:57:51.276Z,102332.72
2023-03-04T01:00:23.960Z,102322.25
2023-03-04T01:02:56.059Z,102326.63
2023-03-04T01:05:28.220Z,102324.06
2023-03-04T01:08:00.242Z,102327.50
2023-03-04T01:10:32.379Z,102324.72
2023-03-04T01:13:04.428Z,102317.75
2023-03-04T01:15:36.519Z,102316.88
2023-03-04T01:18:08.684Z,102314.28
2023-03-04T01:20:40.850Z,102310.03
2023-03-04T01:23:12.949Z,102304.63
2023-03-04T01:25:44.957Z,102303.88
2023-03-04T01:28:16.961Z,102312.69
2023-03-04T01:30:49.342Z,102301.47
2023-03-04T01:33:21.490Z,102294.75
2023-03-04T01:35:53.555Z,102295.56
2023-03-04T01:38:25.878Z,102300.34
2023-03-04T01:40:57.989Z,102297.66
2023-03-04T01:43:31.677Z,102300.25
2023-03-04T01:46:04.319Z,102302.94
2023-03-04T01:48:38.566Z,102287.81
2023-03-04T01:51:17.712Z,102284.97
2023-03-04T01:53:53.440Z,102283.38
2023-03-04T01:56:31.463Z,102279.19
2023-03-04T01:59:16.894Z,102268.22
2023-03-04T02:02:00.477Z,102276.81
2023-03-04T02:04:34.482Z,102267.72
2023-03-04T02:07:06.971Z,102276.56
2023-03-04T02:09:38.963Z,102261.00
2023-03-04T02:12:11.041Z,102261.00
2023-03-04T02:14:43.041Z,102255.97
2023-03-04T02:17:15.233Z,102256.09
2023-03-04T02:19:59.101Z,102243.00
2023-03-04T02:22:32.849Z,102246.19
2023-03-04T02:25:12.501Z,102247.44
2023-03-04T02:27:44.563Z,102242.38
2023-03-04T02:30:20.692Z,102238.16
2023-03-04T02:32:53.771Z,102239.59
2023-03-04T02:35:25.794Z,102232.56
2023-03-04T02:37:57.774Z,102241.31
2023-03-04T02:40:34.544Z,102230.81
2023-03-04T02:43:09.227Z,102231.53
2023-03-04T02:45:43.991Z,102237.22
2023-03-04T02:48:20.551Z,102228.50
2023-03-04T02:50:54.158Z,102221.63
2023-03-04T02:53:26.199Z,102216.34
2023-03-04T02:55:58.154Z,102217.91
2023-03-04T02:58:30.273Z,102218.69
2023-03-04T03:01:02.602Z,102207.41
2023-03-04T03:03:34.688Z,102213.69
2023-03-04T03:06:07.206Z,102207.47
2023-03-04T03:08:39.254Z,102202.41
2023-03-04T03:11:12.838Z,102202.50
2023-03-04T03:13:44.787Z,102199.81
2023-03-04T03:16:16.802Z,102197.03
2023-03-04T03:18:48.876Z,102203.19
2023-03-04T03:21:20.959Z,102191.88
2023-03-04T03:23:53.101Z,102191.00
2023-03-04T03:26:25.339Z,102192.81
2023-03-04T03:28:57.383Z,102191.25
2023-03-04T03:31:29.466Z,102198.31
2023-03-04T03:34:01.583Z,102200.16
2023-03-04T03:36:33.683Z,102183.78
2023-03-04T03:39:05.883Z,102184.47
2023-03-04T03:41:37.955Z,102184.63
2023-03-04T03:44:10.000Z,102176.59
2023-03-04T03:46:42.063Z,102188.63
2023-03-04T03:49:14.668Z,102181.88
2023-03-04T03:51:46.701Z,102178.44
2023-03-04T03:54:18.689Z,102176.63
2023-03-04T03:56:50.946Z,102179.09
2023-03-04T03:59:24.268Z,102178.19
2023-03-04T04:01:56.293Z,102179.00
2023-03-04T04:04:28.932Z,102180.84
2023-03-04T04:07:01.170Z,102171.88
2023-03-04T04:09:36.358Z,102173.44
2023-03-04T04:12:08.681Z,102173.19
2023-03-04T04:14:40.929Z,102161.88
2023-03-04T04:17:14.085Z,102156.56
2023-03-04T04:19:46.099Z,102153.09
2023-03-04T04:22:21.014Z,102143.22
2023-03-04T04:24:53.035Z,102152.91
2023-03-04T04:27:25.067Z,102150.59
2023-03-04T04:29:57.051Z,102146.50
2023-03-04T04:32:29.128Z,102150.75
2023-03-04T04:35:01.104Z,102140.22
2023-03-04T04:37:33.409Z,102133.34
2023-03-04T04:40:06.246Z,102148.69
2023-03-04T04:42:38.298Z,102155.50
2023-03-04T04:45:11.192Z,102151.28
2023-03-04T04:47:46.189Z,102155.44
2023-03-04T04:50:18.477Z,102141.97
2023-03-04T04:52:50.606Z,102148.09
2023-03-04T04:55:22.628Z,102145.41
2023-03-04T04:57:54.690Z,102145.50
2023-03-04T05:00:27.115Z,102154.94
2023-03-04T05:02:59.127Z,102141.88
2023-03-04T05:05:31.194Z,102152.22
2023-03-04T05:08:03.280Z,102151.22
2023-03-04T05:10:35.268Z,102149.66
2023-03-04T05:13:07.282Z,102145.44
2023-03-04T05:15:39.795Z,102142.84
2023-03-04T05:18:11.973Z,102141.97
2023-03-04T05:20:44.172Z,102140.31
2023-03-04T05:23:16.105Z,102147.31
2023-03-04T05:25:48.204Z,102147.47
2023-03-04T05:28:20.763Z,102147.47
2023-03-04T05:30:52.829Z,102149.03
2023-03-04T05:33:24.883Z,102152.31
2023-03-04T05:35:57.106Z,102153.88
2023-03-04T05:38:29.149Z,102147.06
2023-03-04T05:41:05.862Z,102150.97
2023-03-04T05:43:42.785Z,102147.63
2023-03-04T05:46:17.483Z,102149.31
2023-03-04T05:48:49.482Z,102148.53
2023-03-04T05:51:22.982Z,102142.34
2023-03-04T05:53:54.928Z,102145.09
2023-03-04T05:56:26.997Z,102137.31
2023-03-04T05:58:59.566Z,102144.63
2023-03-04T06:01:31.739Z,102145.44
2023-03-04T06:04:03.884Z,102146.50
2023-03-04T06:06:35.949Z,102137.97
2023-03-04T06:09:08.024Z,102139.06
2023-03-04T06:11:40.283Z,102134.81
2023-03-04T06:14:12.454Z,102138.34
2023-03-04T06:16:44.624Z,102133.25
2023-03-04T06:19:16.625Z,102137.75
2023-03-04T06:21:48.755Z,102136.06
2023-03-04T06:24:20.947Z,102137.72
2023-03-04T06:26:52.950Z,102132.63
2023-03-04T06:29:24.931Z,102136.94
2023-03-04T06:31:56.960Z,102137.81
2023-03-04T06:34:29.990Z,102144.00
2023-03-04T06:37:02.331Z,102143.91
2023-03-04T06:39:34.431Z,102153.44
2023-03-04T06:42:06.631Z,102142.28
2023-03-04T06:44:38.703Z,102156.03
2023-03-04T06:47:10.841Z,102148.25
2023-03-04T06:49:42.983Z,102150.38
2023-03-04T06:52:15.647Z,102159.84
2023-03-04T06:54:47.684Z,102148.88
2023-03-04T06:57:19.756Z,102166.00
2023-03-04T06:59:51.735Z,102166.63
2023-03-04T07:02:24.132Z,102161.44
2023-03-04T07:04:56.169Z,102163.22
2023-03-04T07:07:28.221Z,102156.88
2023-03-04T07:10:00.494Z,102155.53
2023-03-04T07:12:32.866Z,102158.69
2023-03-04T07:15:05.627Z,102160.31
2023-03-04T07:17:37.624Z,102156.09
2023-03-04T07:20:10.669Z,102157.06
2023-03-04T07:22:42.618Z,102157.41
2023-03-04T07:25:14.618Z,102158.53
2023-03-04T07:27:46.578Z,102153.44
2023-03-04T07:30:19.011Z,102157.56
2023-03-04T07:32:51.347Z,102169.81
2023-03-04T07:35:23.515Z,102167.13
2023-03-04T07:37:55.614Z,102165.41
2023-03-04T07:40:27.748Z,102173.25
2023-03-04T07:42:59.806Z,102177.41
2023-03-04T07:45:31.941Z,102174.72
2023-03-04T07:48:04.198Z,102179.16
2023-03-04T07:50:36.166Z,102177.44
2023-03-04T07:53:08.173Z,102181.03
2023-03-04T07:55:40.196Z,102173.09
2023-03-04T07:58:12.169Z,102166.09
2023-03-04T08:00:47.487Z,102166.34
2023-03-04T08:03:19.468Z,102163.38
2023-03-04T08:05:52.159Z,102170.50
2023-03-04T08:08:24.190Z,102163.09
2023-03-04T08:10:56.643Z,102173.00
2023-03-04T08:13:28.744Z,102169.03
2023-03-04T08:16:01.245Z,102173.44
2023-03-04T08:18:33.538Z,102170.06
2023-03-04T08:21:11.010Z,102171.72
2023-03-04T08:23:43.256Z,102174.75
2023-03-04T08:26:34.180Z,102174.03
2023-03-04T08:29:06.525Z,102172.88
2023-03-04T08:31:39.611Z,102170.88
2023-03-04T08:34:13.170Z,102186.25
2023-03-04T08:36:45.523Z,102183.25
2023-03-04T08:39:21.255Z,102189.28
2023-03-04T08:41:53.266Z,102179.47
2023-03-04T08:44:26.789Z,102182.72
2023-03-04T08:46:58.916Z,102187.09
2023-03-04T08:49:30.978Z,102187.66
2023-03-04T08:52:03.015Z,102181.56
2023-03-04T08:54:35.256Z,102185.50
2023-03-04T08:57:07.961Z,102185.06
2023-03-04T08:59:40.015Z,102195.81
2023-03-04T09:02:12.212Z,102190.25
2023-03-04T09:04:44.263Z,102192.72
2023-03-04T09:07:16.431Z,102189.22
2023-03-04T09:09:48.404Z,102200.50
2023-03-04T09:12:20.441Z,102199.34
2023-03-04T09:15:08.252Z,102206.34
2023-03-04T09:17:42.296Z,102199.53
2023-03-04T09:20:14.399Z,102201.59
2023-03-04T09:22:46.780Z,102208.06
2023-03-04T09:25:18.851Z,102198.94
2023-03-04T09:27:50.934Z,102205.66
2023-03-04T09:30:23.173Z,102206.59
2023-03-04T09:32:55.236Z,102202.09
2023-03-04T09:35:29.962Z,102205.41
2023-03-04T09:38:02.405Z,102211.09
2023-03-04T09:40:48.496Z,102214.38
2023-03-04T09:43:29.730Z,102224.63
2023-03-04T09:46:13.057Z,102222.59
2023-03-04T09:48:50.213Z,102215.88
2023-03-04T09:52:17.208Z,102224.25
2023-03-04T09:55:18.882Z,102226.91
2023-03-04T09:58:27.457Z,102228.44
2023-03-04T10:01:34.382Z,102227.16
2023-03-04T10:04:40.672Z,102235.00
2023-03-04T10:07:30.136Z,102228.06
2023-03-04T10:10:17.477Z,102216.72
2023-03-04T10:12:51.457Z,102232.38
2023-03-04T10:15:39.300Z,102230.19
2023-03-04T10:18:53.297Z,102225.63
2023-03-04T10:21:36.932Z,102229.25
2023-03-04T10:24:18.113Z,102225.06
2023-03-04T10:26:56.156Z,102229.06
2023-03-04T10:29:30.484Z,102235.41
2023-03-04T10:32:02.597Z,102218.34
2023-03-04T10:34:34.957Z,102224.88
2023-03-04T10:37:08.871Z,102233.09
2023-03-04T10:39:50.748Z,102231.53
2023-03-04T10:42:29.926Z,102236.94
2023-03-04T10:45:01.969Z,102235.28
2023-03-04T10:47:35.386Z,102221.91
2023-03-04T10:50:25.257Z,102209.97
2023-03-04T10:52:57.700Z,102221.19
2023-03-04T10:55:43.003Z,102212.41
2023-03-04T10:58:19.364Z,102203.91
2023-03-04T11:01:07.164Z,102199.66
2023-03-04T11:03:47.267Z,102205.28
2023-03-04T11:06:23.065Z,102198.63
2023-03-04T11:09:00.374Z,102195.84
2023-03-04T11:11:44.529Z,102190.09
2023-03-04T11:14:23.601Z,102205.34
2023-03-04T11:17:02.292Z,102200.06
2023-03-04T11:19:42.254Z,102191.47
2023-03-04T11:22:18.832Z,102193.13
2023-03-04T11:25:26.823Z,102196.09
2023-03-04T11:28:13.182Z,102186.78
2023-03-04T11:30:51.037Z,102183.38
2023-03-04T11:33:45.755Z,102182.28
2023-03-04T11:36:37.203Z,102179.19
2023-03-04T11:39:22.410Z,102169.72
2023-03-04T11:42:24.114Z,102177.00
2023-03-04T11:44:56.758Z,102177.94
2023-03-04T11:48:08.753Z,102187.91
2023-03-04T11:50:58.393Z,102180.16
2023-03-04T11:54:19.055Z,102182.81
2023-03-04T11:57:20.130Z,102174.75
2023-03-04T12:00:22.898Z,102176.19
2023-03-04T12:03:26.214Z,102158.28
2023-03-04T12:06:37.818Z,102164.47
2023-03-04T12:09:30.954Z,102162.16
2023-03-04T12:12:29.936Z,102162.06
2023-03-04T12:15:20.139Z,102161.56
2023-03-04T12:18:30.306Z,102164.56
2023-03-04T12:21:43.072Z,102170.56
2023-03-04T12:24:42.966Z,102166.19
2023-03-04T12:27:26.288Z,102176.34
2023-03-04T12:30:23.325Z,102178.84
2023-03-04T12:33:25.854Z,102170.38
2023-03-04T12:36:27.446Z,102172.75
2023-03-04T12:39:49.114Z,102154.50
2023-03-04T12:42:51.311Z,102149.84
2023-03-04T12:45:37.283Z,102148.72
2023-03-04T12:48:33.214Z,102135.41
2023-03-04T12:51:45.073Z,102132.84
2023-03-04T12:54:26.268Z,102130.84
2023-03-04T12:57:05.064Z,102125.22
2023-03-04T13:00:32.260Z,102130.91
2023-03-04T13:03:38.136Z,102123.97
2023-03-04T13:06:38.578Z,102122.19
2023-03-04T13:09:27.021Z,102121.09
2023-03-04T13:12:22.630Z,102124.84
2023-03-04T13:15:10.040Z,102125.53
2023-03-04T13:17:51.588Z,102132.19
2023-03-04T13:20:42.909Z,102128.47
2023-03-04T13:23:14.818Z,102126.47
2023-03-04T13:25:55.893Z,102137.81
2023-03-04T13:28:33.431Z,102123.97
2023-03-04T13:31:10.842Z,102122.88
2023-03-04T13:33:42.728Z,102117.91
2023-03-04T13:36:54.972Z,102131.47
2023-03-04T13:39:30.058Z,102123.25
2023-03-04T13:42:03.614Z,102134.63
2023-03-04T13:44:44.706Z,102137.78
2023-03-04T13:47:21.923Z,102131.25
2023-03-04T13:50:30.017Z,102121.81
2023-03-04T13:53:31.449Z,102123.56
2023-03-04T13:56:41.964Z,102137.72
2023-03-04T13:59:30.188Z,102129.41
2023-03-04T14:02:15.954Z,102145.22
2023-03-04T14:04:59.847Z,102139.91
2023-03-04T14:07:36.608Z,102134.25
2023-03-04T14:10:11.604Z,102127.22
2023-03-04T14:12:56.903Z,102125.13
2023-03-04T14:15:35.166Z,102136.25
2023-03-04T14:18:07.416Z,102131.19
2023-03-04T14:20:48.918Z,102137.66
2023-03-04T14:23:34.574Z,102123.06
2023-03-04T14:26:18.489Z,102137.66
2023-03-04T14:28:56.781Z,102134.75
2023-03-04T14:31:34.948Z,102127.63
2023-03-04T14:34:15.405Z,102157.06
2023-03-04T14:36:47.540Z,102133.03
2023-03-04T14:39:21.409Z,102130.50
2023-03-04T14:41:56.821Z,102133.03
2023-03-04T14:44:45.971Z,102141.63
2023-03-04T14:47:40.536Z,102123.09
2023-03-04T14:50:19.669Z,102125.84
2023-03-04T14:53:19.037Z,102113.91
2023-03-04T14:56:08.233Z,102121.84
2023-03-04T14:58:58.256Z,102122.56
2023-03-04T15:01:37.633Z,102132.38
2023-03-04T15:04:12.283Z,102131.19
2023-03-04T15:06:53.510Z,102127.56
2023-03-04T15:09:27.404Z,102128.38
2023-03-04T15:12:07.014Z,102124.13
2023-03-04T15:14:50.221Z,102114.25
2023-03-04T15:17:38.865Z,102110.16
2023-03-04T15:20:10.804Z,102113.44
2023-03-04T15:22:48.518Z,102102.34
2023-03-04T15:25:21.507Z,102103.75
2023-03-04T15:27:54.637Z,102117.91
2023-03-04T15:30:33.336Z,102123.84
2023-03-04T15:33:10.839Z,102116.75
2023-03-04T15:35:54.032Z,102119.31
2023-03-04T15:38:27.679Z,102123.69
2023-03-04T15:40:59.855Z,102118.91
2023-03-04T15:43:31.842Z,102113.59
2023-03-04T15:46:04.359Z,102121.94
2023-03-04T15:48:36.324Z,102115.19
2023-03-04T15:51:15.713Z,102118.25
2023-03-04T15:53:51.293Z,102111.66
2023-03-04T15:56:32.357Z,102111.44
2023-03-04T15:59:11.572Z,102120.91
2023-03-04T16:01:44.061Z,102111.41
2023-03-04T16:04:17.929Z,102117.44
2023-03-04T16:06:50.633Z,102107.97
2023-03-04T16:09:23.069Z,102106.44
2023-03-04T16:12:01.829Z,102113.47
2023-03-04T16:14:33.921Z,102112.59
2023-03-04T16:17:05.960Z,102106.59
2023-03-04T16:19:39.082Z,102097.59
2023-03-04T16:22:18.936Z,102099.59
2023-03-04T16:24:52.606Z,102103.25
2023-03-04T16:27:26.634Z,102096.91
2023-03-04T16:29:58.717Z,102103.72
2023-03-04T16:32:33.099Z,102093.41
2023-03-04T16:35:06.706Z,102104.63
2023-03-04T16:37:39.292Z,102100.97
2023-03-04T16:40:19.788Z,102096.56
2023-03-04T16:42:51.937Z,102097.38
2023-03-04T16:45:30.310Z,102086.19
2023-03-04T16:48:02.324Z,102094.09
2023-03-04T16:50:36.818Z,102088.84
2023-03-04T16:53:39.278Z,102086.81
2023-03-04T16:56:17.392Z,102089.53
2023-03-04T16:58:49.640Z,102094.09
2023-03-04T17:01:26.648Z,102092.28
2023-03-04T17:03:58.646Z,102092.00
2023-03-04T17:06:30.955Z,102095.75
2023-03-04T17:09:02.924Z,102090.78
2023-03-04T17:11:36.056Z,102083.78
2023-03-04T17:14:08.054Z,102086.09
2023-03-04T17:16:39.990Z,102090.56
2023-03-04T17:19:11.930Z,102099.94
2023-03-04T17:21:43.970Z,102088.22
2023-03-04T17:24:15.989Z,102100.72
2023-03-04T17:26:48.027Z,102095.31
2023-03-04T17:29:20.543Z,102090.13
2023-03-04T17:31:52.620Z,102096.03
2023-03-04T17:34:25.898Z,102106.41
2023-03-04T17:36:57.985Z,102102.72
2023-03-04T17:39:29.957Z,102099.53
2023-03-04T17:42:02.002Z,102097.34
2023-03-04T17:44:34.105Z,102090.56
2023-03-04T17:47:06.450Z,102099.41
2023-03-04T17:49:38.447Z,102101.78
2023-03-04T17:52:12.084Z,102099.22
2023-03-04T17:54:46.442Z,102102.72
2023-03-04T17:57:18.483Z,102100.94
2023-03-04T17:59:50.591Z,102100.84
2023-03-04T18:02:22.585Z,102110.31
2023-03-04T18:04:54.585Z,102119.81
2023-03-04T18:07:26.666Z,102103.22
2023-03-04T18:09:58.702Z,102092.50
2023-03-04T18:12:30.943Z,102097.44
2023-03-04T18:15:03.053Z,102092.91
2023-03-04T18:17:35.088Z,102088.75
2023-03-04T18:20:08.081Z,102093.13
2023-03-04T18:22:40.100Z,102095.00
2023-03-04T18:25:12.887Z,102091.47
2023-03-04T18:27:45.029Z,102106.03
2023-03-04T18:30:17.926Z,102101.72
2023-03-04T18:32:52.453Z,102100.41
2023-03-04T18:35:24.611Z,102095.00
2023-03-04T18:37:56.654Z,102093.84
2023-03-04T18:40:29.718Z,102102.50
2023-03-04T18:43:01.769Z,102100.06
2023-03-04T18:45:33.825Z,102097.47
2023-03-04T18:48:06.269Z,102101.84
2023-03-04T18:50:38.221Z,102095.22
2023-03-04T18:53:10.202Z,102087.22
2023-03-04T18:55:42.169Z,102091.13
2023-03-04T18:58:14.338Z,102086.56
2023-03-04T19:00:46.636Z,102089.81
2023-03-04T19:03:18.665Z,102088.88
2023-03-04T19:05:50.726Z,102094.94
2023-03-04T19:08:22.730Z,102095.81
2023-03-04T19:10:55.798Z,102091.47
2023-03-04T19:13:30.538Z,102089.69
2023-03-04T19:16:02.600Z,102097.69
2023-03-04T19:18:34.812Z,102090.03
2023-03-04T19:21:07.017Z,102088.31
2023-03-04T19:23:40.149Z,102090.31
2023-03-04T19:26:13.908Z,102097.97
2023-03-04T19:28:46.104Z,102096.97
2023-03-04T19:31:18.214Z,102097.81
2023-03-04T19:33:50.231Z,102098.63
2023-03-04T19:36:22.453Z,102099.56
2023-03-04T19:38:55.595Z,102105.59
2023-03-04T19:41:30.089Z,102102.34
2023-03-04T19:44:02.219Z,102105.09
2023-03-04T19:46:34.684Z,102106.75
2023-03-04T19:49:07.004Z,102111.00
2023-03-04T19:51:41.290Z,102107.50
2023-03-04T19:54:13.326Z,102113.97
2023-03-04T19:56:45.412Z,102102.38
2023-03-04T19:59:17.547Z,102100.69
2023-03-04T20:01:49.631Z,102090.16
2023-03-04T20:04:22.231Z,102096.25
2023-03-04T20:06:54.217Z,102109.28
2023-03-04T20:09:26.253Z,102097.03
2023-03-04T20:11:59.539Z,102100.94
2023-03-04T20:14:33.840Z,102094.59
2023-03-04T20:17:07.193Z,102092.75
2023-03-04T20:19:39.324Z,102083.97
2023-03-04T20:22:13.450Z,102086.16
2023-03-04T20:24:45.413Z,102083.44
2023-03-04T20:27:18.118Z,102087.63
2023-03-04T20:29:50.160Z,102091.75
2023-03-04T20:32:22.902Z,102090.81
2023-03-04T20:34:57.185Z,102088.28
2023-03-04T20:37:29.391Z,102085.69
2023-03-04T20:40:01.410Z,102087.50
2023-03-04T20:42:33.972Z,102091.88
2023-03-04T20:45:07.014Z,102093.69
2023-03-04T20:47:39.744Z,102090.47
2023-03-04T20:50:12.107Z,102088.22
2023-03-04T20:52:46.179Z,102096.09
2023-03-04T20:55:19.433Z,102100.97
2023-03-04T20:57:51.420Z,102091.94
2023-03-04T21:00:23.654Z,102095.28
2023-03-04T21:02:55.755Z,102092.03
2023-03-04T21:05:27.795Z,102083.09
2023-03-04T21:07:59.881Z,102086.22
2023-03-04T21:10:35.900Z,102087.22
2023-03-04T21:13:11.327Z,102077.03
2023-03-04T21:15:47.875Z,102077.28
2023-03-04T21:18:19.871Z,102075.38
2023-03-04T21:20:52.570Z,102058.16
2023-03-04T21:23:24.699Z,102066.09
2023-03-04T21:25:59.687Z,102059.97
2023-03-04T21:28:31.661Z,102062.44
2023-03-04T21:31:04.974Z,102065.03
2023-03-04T21:33:37.491Z,102077.09
2023-03-04T21:36:11.534Z,102067.50
2023-03-04T21:38:45.124Z,102066.69
2023-03-04T21:41:20.918Z,102069.97
2023-03-04T21:43:52.958Z,102070.28
2023-03-04T21:46:25.081Z,102065.63
2023-03-04T21:48:57.058Z,102056.53
2023-03-04T21:51:29.204Z,102055.28
2023-03-04T21:54:01.723Z,102052.53
2023-03-04T21:56:34.549Z,102055.94
2023-03-04T21:59:10.178Z,102052.47
2023-03-04T22:01:42.503Z,102049.03
2023-03-04T22:04:14.544Z,102041.28
2023-03-04T22:06:46.553Z,102038.75
2023-03-04T22:09:18.654Z,102051.06
2023-03-04T22:11:50.898Z,102050.38
2023-03-04T22:14:22.828Z,102050.44
2023-03-04T22:16:56.202Z,102047.09
2023-03-04T22:19:32.381Z,102042.03
2023-03-04T22:22:04.540Z,102041.25
2023-03-04T22:24:36.609Z,102038.44
2023-03-04T22:27:08.796Z,102034.03
2023-03-04T22:29:40.779Z,102030.66
2023-03-04T22:32:13.110Z,102022.97
2023-03-04T22:34:45.173Z,102024.78
2023-03-04T22:37:17.125Z,102033.75
2023-03-04T22:39:49.202Z,102029.22
2023-03-04T22:42:21.287Z,102027.38
2023-03-04T22:44:55.709Z,102033.63
2023-03-04T22:47:27.708Z,102027.44
2023-03-04T22:49:59.669Z,102025.56
2023-03-04T22:52:31.716Z,102017.97
2023-03-04T22:55:04.305Z,102017.03
2023-03-04T22:57:36.304Z,102013.44
2023-03-04T23:00:22.970Z,102020.38
2023-03-04T23:02:55.828Z,102009.91
2023-03-04T23:05:28.190Z,102015.91
2023-03-04T23:08:00.220Z,102011.44
2023-03-04T23:10:32.188Z,102008.22
2023-03-04T23:13:04.255Z,102004.03
2023-03-04T23:15:36.187Z,102009.97
2023-03-04T23:18:08.163Z,102006.56
2023-03-04T23:20:42.322Z,102002.09
2023-03-04T23:23:14.352Z,101998.63
2023-03-04T23:25:46.490Z,101991.63
2023-03-04T23:28:19.219Z,101991.19
2023-03-04T23:30:51.293Z,101986.03
2023-03-04T23:33:23.485Z,101973.78
2023-03-04T23:35:55.521Z,101973.66
2023-03-04T23:38:27.918Z,101967.50
2023-03-04T23:40:59.968Z,101966.50
2023-03-04T23:43:33.071Z,101965.34
2023-03-04T23:46:05.452Z,101960.78
2023-03-04T23:48:39.708Z,101962.72
2023-03-04T23:51:12.287Z,101962.06
2023-03-04T23:53:45.712Z,101964.84
2023-03-04T23:56:24.136Z,101958.84
2023-03-04T23:58:58.185Z,101946.91
